Time;durP1;ratioP1;P1;durP2;ratioP2;P2;SDS_P1;SDS_P2;PMS_P1;PMS_P2;Temp;Humidity;BMP_temperature;BMP_pressure;BME280_temperature;BME280_humidity;BME280_pressure;Samples;Min_cycle;Max_cycle;Signal;HPM_P1;HPM_P2
2024/01/02 00:01:00;;;;;;;2.43;1.60;;;6.80;99.90;;;;;;478465;248;29351;-66
2024/01/02 00:03:01;;;;;;;2.90;1.50;;;6.80;99.90;;;;;;478473;248;28663;-65
2024/01/02 00:05:03;;;;;;;3.75;1.83;;;6.70;99.90;;;;;;478437;248;28333;-66
2024/01/02 00:07:04;;;;;;;9.50;2.10;;;6.70;99.90;;;;;;478476;248;27510;-66
2024/01/02 00:09:05;;;;;;;3.63;1.57;;;6.70;99.90;;;;;;478477;248;27889;-65
2024/01/02 00:11:06;;;;;;;3.07;1.70;;;6.70;99.90;;;;;;478466;248;28785;-66
2024/01/02 00:13:08;;;;;;;3.00;1.50;;;6.70;99.90;;;;;;478365;248;28752;-66
2024/01/02 00:15:09;;;;;;;5.77;1.67;;;6.70;99.90;;;;;;478453;247;27446;-65
2024/01/02 00:17:10;;;;;;;6.07;2.10;;;6.70;99.90;;;;;;478459;247;27684;-67
2024/01/02 00:19:11;;;;;;;2.43;1.70;;;6.70;99.90;;;;;;478475;248;27837;-65
2024/01/02 00:21:13;;;;;;;3.15;1.80;;;6.70;99.90;;;;;;478457;248;27834;-66
2024/01/02 00:23:14;;;;;;;2.90;1.60;;;6.70;99.90;;;;;;478469;248;27878;-65
2024/01/02 00:25:15;;;;;;;2.43;1.60;;;6.60;99.90;;;;;;478427;248;29327;-65
2024/01/02 00:27:16;;;;;;;3.30;1.50;;;6.60;99.90;;;;;;478471;248;28264;-67
2024/01/02 00:29:18;;;;;;;1.77;1.67;;;6.60;99.90;;;;;;478477;248;28909;-65
2024/01/02 00:31:19;;;;;;;7.30;3.03;;;6.60;99.90;;;;;;478453;248;27411;-67
2024/01/02 00:33:20;;;;;;;3.30;1.67;;;6.60;99.90;;;;;;478463;248;27510;-65
2024/01/02 00:35:21;;;;;;;3.37;1.83;;;6.60;99.90;;;;;;478435;248;27419;-65
2024/01/02 00:37:23;;;;;;;2.85;1.73;;;6.60;99.90;;;;;;478468;248;28473;-66
2024/01/02 00:39:24;;;;;;;2.80;1.60;;;6.60;99.90;;;;;;478461;248;27462;-65
2024/01/02 00:41:25;;;;;;;3.37;1.50;;;6.60;99.90;;;;;;478460;248;28835;-66
2024/01/02 00:43:26;;;;;;;3.20;1.75;;;6.60;99.90;;;;;;478414;248;27975;-68
2024/01/02 00:45:28;;;;;;;2.80;1.80;;;6.60;99.90;;;;;;478461;248;27845;-65
2024/01/02 00:47:29;;;;;;;2.40;1.73;;;6.50;99.90;;;;;;478458;248;27512;-67
2024/01/02 00:49:30;;;;;;;2.70;1.70;;;6.60;99.90;;;;;;478471;248;27422;-65
2024/01/02 00:51:31;;;;;;;4.22;1.60;;;6.60;99.90;;;;;;478457;248;28839;-66
2024/01/02 00:53:33;;;;;;;1.45;1.33;;;6.60;99.90;;;;;;478444;248;27430;-66
2024/01/02 00:55:34;;;;;;;4.75;1.83;;;6.60;99.90;;;;;;478463;248;27419;-65
2024/01/02 00:57:35;;;;;;;1.73;1.47;;;6.60;99.90;;;;;;481234;245;28062;-66
2024/01/02 00:59:36;;;;;;;1.87;1.58;;;6.50;99.90;;;;;;485192;242;30790;-66
2024/01/02 01:01:38;;;;;;;3.80;1.90;;;6.60;99.90;;;;;;485220;245;27391;-66
2024/01/02 01:03:39;;;;;;;1.70;1.60;;;6.50;99.90;;;;;;485201;245;28765;-66
2024/01/02 01:05:40;;;;;;;1.70;1.60;;;6.50;99.90;;;;;;485155;245;27399;-65
2024/01/02 01:07:43;;;;;;;1.83;1.65;;;6.50;99.90;;;;;;485189;245;27994;-65
2024/01/02 01:09:43;;;;;;;1.40;1.30;;;6.50;99.90;;;;;;485085;245;27419;-67
2024/01/02 01:11:44;;;;;;;2.05;1.30;;;6.50;99.90;;;;;;485223;245;28759;-65
2024/01/02 01:13:45;;;;;;;1.60;1.43;;;6.50;99.90;;;;;;485208;245;27973;-66
2024/01/02 01:15:46;;;;;;;1.52;1.42;;;6.50;99.90;;;;;;485210;245;29144;-65
2024/01/02 01:17:48;;;;;;;1.60;1.50;;;6.50;99.90;;;;;;485224;245;27897;-66
2024/01/02 01:19:49;;;;;;;3.53;1.50;;;6.50;99.90;;;;;;485228;245;28751;-66
2024/01/02 01:21:51;;;;;;;2.50;1.63;;;6.50;99.90;;;;;;485232;245;27404;-65
2024/01/02 01:23:52;;;;;;;4.33;1.67;;;6.50;99.90;;;;;;485196;245;27854;-66
2024/01/02 01:25:54;;;;;;;1.60;1.50;;;6.50;99.90;;;;;;485220;245;28015;-65
2024/01/02 01:27:54;;;;;;;2.37;1.55;;;6.50;99.90;;;;;;485198;245;28094;-65
2024/01/02 01:29:55;;;;;;;3.40;1.80;;;6.50;99.90;;;;;;485223;245;27425;-66
2024/01/02 01:31:57;;;;;;;4.27;1.50;;;6.50;99.90;;;;;;485228;245;28734;-66
2024/01/02 01:33:58;;;;;;;2.57;1.40;;;6.50;99.90;;;;;;485086;245;27885;-66
2024/01/02 01:35:59;;;;;;;2.10;1.60;;;6.50;99.90;;;;;;485257;245;28886;-67
2024/01/02 01:38:01;;;;;;;2.07;1.60;;;6.50;99.90;;;;;;485262;245;28213;-65
2024/01/02 01:40:02;;;;;;;2.07;1.60;;;6.50;99.90;;;;;;485228;245;28355;-67
2024/01/02 01:42:03;;;;;;;2.40;1.50;;;6.50;99.90;;;;;;485234;245;28244;-65
2024/01/02 01:44:04;;;;;;;1.50;1.40;;;6.50;99.90;;;;;;485217;245;29308;-66
2024/01/02 01:46:05;;;;;;;2.47;1.40;;;6.50;99.90;;;;;;485236;245;28104;-67
2024/01/02 01:48:08;;;;;;;2.12;1.40;;;6.50;99.90;;;;;;485230;245;27395;-65
2024/01/02 01:50:08;;;;;;;3.10;1.70;;;6.50;99.90;;;;;;485146;245;27481;-66
2024/01/02 01:52:09;;;;;;;2.30;1.30;;;6.50;99.90;;;;;;485244;245;28441;-65
2024/01/02 01:54:10;;;;;;;3.72;1.35;;;6.50;99.90;;;;;;485213;245;28749;-65
2024/01/02 01:56:12;;;;;;;1.30;1.23;;;6.40;99.90;;;;;;485243;245;27402;-66
2024/01/02 01:58:13;;;;;;;6.30;2.27;;;6.50;99.90;;;;;;485224;245;28327;-66
2024/01/02 02:00:14;;;;;;;1.43;1.33;;;6.40;99.90;;;;;;485253;245;28766;-66
2024/01/02 02:02:15;;;;;;;2.28;1.50;;;6.40;99.90;;;;;;485247;245;27990;-65
2024/01/02 02:04:17;;;;;;;1.65;1.50;;;6.40;99.90;;;;;;485223;245;27872;-65
2024/01/02 02:06:18;;;;;;;2.47;1.30;;;6.40;99.90;;;;;;485186;245;27406;-66
2024/01/02 02:08:19;;;;;;;1.53;1.10;;;6.40;99.90;;;;;;485242;245;27390;-65
2024/01/02 02:10:20;;;;;;;1.60;1.17;;;6.40;99.90;;;;;;485241;245;28756;-65
2024/01/02 02:12:22;;;;;;;2.43;1.13;;;6.40;99.90;;;;;;485248;245;28338;-65
2024/01/02 02:14:23;;;;;;;1.20;1.20;;;6.40;99.90;;;;;;485192;242;28843;-66
2024/01/02 02:16:24;;;;;;;3.12;1.30;;;6.30;99.90;;;;;;485228;242;27426;-66
2024/01/02 02:18:26;;;;;;;2.60;1.50;;;6.30;99.90;;;;;;485243;245;27478;-65
2024/01/02 02:20:27;;;;;;;1.83;1.10;;;6.30;99.90;;;;;;485262;245;27477;-66
2024/01/02 02:22:28;;;;;;;1.98;1.50;;;6.30;99.90;;;;;;485232;245;27735;-66
2024/01/02 02:24:29;;;;;;;5.00;1.60;;;6.30;99.90;;;;;;485217;245;27953;-66
2024/01/02 02:26:31;;;;;;;1.17;1.12;;;6.30;99.90;;;;;;485100;245;29217;-65
2024/01/02 02:28:32;;;;;;;6.10;1.30;;;6.30;99.90;;;;;;485116;245;27416;-67
2024/01/02 02:30:33;;;;;;;1.60;1.23;;;6.20;99.90;;;;;;485248;245;28942;-65
2024/01/02 02:32:34;;;;;;;1.12;1.02;;;6.30;99.90;;;;;;485247;245;28858;-66
2024/01/02 02:34:36;;;;;;;1.20;1.10;;;6.30;99.90;;;;;;485222;245;27402;-65
2024/01/02 02:36:37;;;;;;;3.42;1.20;;;6.30;99.90;;;;;;485248;245;27494;-66
2024/01/02 02:38:38;;;;;;;1.70;1.30;;;6.30;99.90;;;;;;485251;245;27502;-66
2024/01/02 02:40:39;;;;;;;1.20;1.10;;;6.30;99.90;;;;;;485243;245;28241;-65
2024/01/02 02:42:41;;;;;;;1.35;1.25;;;6.30;99.90;;;;;;485244;242;27997;-66
2024/01/02 02:44:43;;;;;;;3.20;1.20;;;6.40;99.90;;;;;;485220;242;27574;-65
2024/01/02 02:46:43;;;;;;;1.07;0.97;;;6.30;99.90;;;;;;485209;245;27415;-65
2024/01/02 02:48:44;;;;;;;1.00;1.00;;;6.30;99.90;;;;;;485235;245;28762;-67
2024/01/02 02:50:46;;;;;;;1.17;1.08;;;6.30;99.90;;;;;;485227;245;28748;-66
2024/01/02 02:52:47;;;;;;;1.03;1.03;;;6.40;99.90;;;;;;485235;245;27497;-65
2024/01/02 02:54:48;;;;;;;2.43;1.10;;;6.40;99.90;;;;;;485222;245;28152;-67
2024/01/02 02:56:50;;;;;;;1.03;1.00;;;6.40;99.90;;;;;;485219;245;28527;-65
2024/01/02 02:58:51;;;;;;;1.20;1.10;;;6.40;99.90;;;;;;485218;245;28934;-66
2024/01/02 03:00:52;;;;;;;1.00;1.00;;;6.40;99.90;;;;;;485252;245;27471;-65
2024/01/02 03:02:56;;;;;;;1.43;1.00;;;6.40;99.90;;;;;;485249;245;29213;-66
2024/01/02 03:04:54;;;;;;;1.20;1.10;;;6.40;99.90;;;;;;484902;245;28479;-67
2024/01/02 03:06:56;;;;;;;2.15;1.08;;;6.40;99.90;;;;;;485215;245;28390;-66
2024/01/02 03:08:57;;;;;;;0.98;0.90;;;6.50;99.90;;;;;;485254;245;27478;-66
2024/01/02 03:10:59;;;;;;;1.90;1.10;;;6.50;99.90;;;;;;485233;245;27398;-65
2024/01/02 03:12:59;;;;;;;0.90;0.90;;;6.50;99.90;;;;;;485236;245;27418;-65
2024/01/02 03:15:01;;;;;;;1.00;1.00;;;6.50;99.90;;;;;;485223;245;27767;-67
2024/01/02 03:17:02;;;;;;;1.27;1.17;;;6.50;99.90;;;;;;485248;245;27651;-65
2024/01/02 03:19:03;;;;;;;1.00;1.00;;;6.60;99.90;;;;;;485244;245;28324;-66
2024/01/02 03:21:04;;;;;;;2.12;1.00;;;6.60;99.90;;;;;;485239;245;27411;-66
2024/01/02 03:23:06;;;;;;;1.60;0.98;;;6.60;99.90;;;;;;485114;242;27977;-66
2024/01/02 03:25:07;;;;;;;1.35;1.00;;;6.60;99.90;;;;;;485095;245;27893;-66
2024/01/02 03:27:08;;;;;;;1.30;1.20;;;6.60;99.90;;;;;;485231;245;27503;-65
2024/01/02 03:29:09;;;;;;;2.20;0.90;;;6.60;99.90;;;;;;485251;245;27477;-66
2024/01/02 03:31:12;;;;;;;3.53;1.05;;;6.70;99.90;;;;;;485237;245;28836;-67
2024/01/02 03:33:12;;;;;;;1.10;1.00;;;6.60;99.90;;;;;;485207;245;27403;-65
2024/01/02 03:35:13;;;;;;;1.37;1.03;;;6.60;99.90;;;;;;485218;245;27791;-66
2024/01/02 03:37:14;;;;;;;1.47;1.03;;;6.60;99.90;;;;;;485246;245;27642;-65
2024/01/02 03:39:16;;;;;;;1.30;1.20;;;6.70;99.90;;;;;;485249;245;27747;-66
2024/01/02 03:41:17;;;;;;;1.33;1.00;;;6.70;99.90;;;;;;485247;245;28628;-67
2024/01/02 03:43:18;;;;;;;1.20;1.10;;;6.80;99.90;;;;;;485241;245;28356;-65
2024/01/02 03:45:19;;;;;;;1.00;1.00;;;6.70;99.90;;;;;;485210;245;28341;-66
2024/01/02 03:47:21;;;;;;;1.20;1.10;;;6.80;99.90;;;;;;485223;245;29204;-66
2024/01/02 03:49:22;;;;;;;1.00;1.00;;;6.70;99.90;;;;;;485233;245;27398;-66
2024/01/02 03:51:23;;;;;;;1.10;1.00;;;6.70;99.90;;;;;;485245;245;27899;-66
2024/01/02 03:53:25;;;;;;;1.05;1.05;;;6.70;99.90;;;;;;485212;245;27493;-66
2024/01/02 03:55:26;;;;;;;0.97;0.97;;;6.80;99.90;;;;;;485195;245;27411;-66
2024/01/02 03:57:27;;;;;;;1.00;0.90;;;6.80;99.90;;;;;;485180;245;27910;-66
2024/01/02 03:59:28;;;;;;;1.03;1.03;;;6.80;99.90;;;;;;485212;245;27858;-65
2024/01/02 04:01:29;;;;;;;1.75;1.00;;;6.80;99.90;;;;;;485212;245;28768;-66
2024/01/02 04:03:31;;;;;;;1.95;1.10;;;6.80;99.90;;;;;;485198;245;27966;-66
2024/01/02 04:05:32;;;;;;;1.23;1.03;;;6.80;99.90;;;;;;485242;245;27874;-66
2024/01/02 04:07:33;;;;;;;1.20;1.10;;;6.90;99.90;;;;;;485241;245;28088;-67
2024/01/02 04:09:34;;;;;;;1.10;1.00;;;6.90;99.90;;;;;;485236;245;27473;-65
2024/01/02 04:11:36;;;;;;;2.50;0.97;;;6.90;99.90;;;;;;485082;243;28178;-66
2024/01/02 04:13:37;;;;;;;1.40;1.30;;;6.90;99.90;;;;;;485196;245;28013;-65
2024/01/02 04:15:38;;;;;;;1.20;1.10;;;6.90;99.90;;;;;;485109;245;27885;-66
2024/01/02 04:17:39;;;;;;;1.10;1.00;;;6.90;99.90;;;;;;485239;245;27944;-67
2024/01/02 04:19:41;;;;;;;1.13;1.00;;;6.90;99.90;;;;;;485236;245;28524;-66
2024/01/02 04:21:42;;;;;;;1.10;1.10;;;6.90;99.90;;;;;;485242;245;27768;-66
2024/01/02 04:23:43;;;;;;;0.80;0.80;;;6.90;99.90;;;;;;485194;245;28776;-65
2024/01/02 04:25:44;;;;;;;1.07;0.97;;;6.90;99.90;;;;;;485230;245;28305;-65
2024/01/02 04:27:46;;;;;;;2.37;1.10;;;6.90;99.90;;;;;;485229;245;28447;-66
2024/01/02 04:29:47;;;;;;;0.97;0.97;;;6.80;99.90;;;;;;485239;245;27978;-65
2024/01/02 04:31:48;;;;;;;0.97;0.97;;;6.90;99.90;;;;;;485235;245;27871;-66
2024/01/02 04:33:49;;;;;;;1.00;0.97;;;6.90;99.90;;;;;;485203;245;28343;-66
2024/01/02 04:35:51;;;;;;;0.90;0.90;;;6.90;99.90;;;;;;485097;245;29179;-65
2024/01/02 04:37:52;;;;;;;0.90;0.90;;;6.90;99.90;;;;;;485230;245;28369;-66
2024/01/02 04:39:53;;;;;;;0.90;0.90;;;6.90;99.90;;;;;;485235;245;28434;-66
2024/01/02 04:41:54;;;;;;;1.47;0.87;;;6.90;99.90;;;;;;485210;245;28367;-66
2024/01/02 04:43:56;;;;;;;1.30;1.05;;;6.90;99.90;;;;;;485194;245;28731;-66
2024/01/02 04:45:57;;;;;;;1.00;1.00;;;6.90;99.90;;;;;;485232;245;27392;-66
2024/01/02 04:47:58;;;;;;;1.13;1.00;;;6.90;99.90;;;;;;485216;245;28173;-66
2024/01/02 04:49:59;;;;;;;1.00;1.00;;;7.00;99.90;;;;;;485226;245;27996;-65
2024/01/02 04:52:01;;;;;;;1.30;1.00;;;7.00;99.90;;;;;;485222;245;27900;-66
2024/01/02 04:54:02;;;;;;;3.03;1.30;;;7.00;99.90;;;;;;485205;245;27543;-67
2024/01/02 04:56:03;;;;;;;0.93;0.93;;;7.00;99.90;;;;;;485232;245;28013;-65
2024/01/02 04:58:04;;;;;;;0.90;0.90;;;7.00;99.90;;;;;;485232;245;27767;-66
2024/01/02 05:00:06;;;;;;;1.20;1.10;;;7.00;99.90;;;;;;485233;245;27631;-66
2024/01/02 05:02:07;;;;;;;2.87;1.00;;;7.00;99.90;;;;;;485233;245;27512;-66
2024/01/02 05:04:08;;;;;;;0.93;0.93;;;7.00;99.90;;;;;;485210;245;27889;-65
2024/01/02 05:06:09;;;;;;;1.00;1.00;;;7.00;99.90;;;;;;485173;245;27877;-66
2024/01/02 05:08:11;;;;;;;1.10;1.10;;;7.00;99.90;;;;;;485267;245;28421;-66
2024/01/02 05:10:12;;;;;;;2.00;1.27;;;7.00;99.90;;;;;;485248;245;28528;-67
2024/01/02 05:12:13;;;;;;;1.70;1.03;;;7.00;99.90;;;;;;485257;245;28273;-66
2024/01/02 05:14:14;;;;;;;1.00;1.00;;;7.00;99.90;;;;;;485223;245;27897;-66
2024/01/02 05:16:16;;;;;;;1.20;1.10;;;7.10;99.90;;;;;;485273;245;28061;-65
2024/01/02 05:18:17;;;;;;;1.23;1.23;;;7.10;99.90;;;;;;485276;245;27907;-67
2024/01/02 05:20:18;;;;;;;0.90;0.90;;;7.10;99.90;;;;;;485268;245;27983;-67
2024/01/02 05:22:19;;;;;;;0.90;0.90;;;7.20;99.90;;;;;;485275;245;27882;-66
2024/01/02 05:24:21;;;;;;;1.07;1.07;;;7.10;99.90;;;;;;485230;245;27501;-66
2024/01/02 05:26:22;;;;;;;1.30;1.30;;;7.10;99.90;;;;;;485238;245;27923;-67
2024/01/02 05:28:23;;;;;;;0.80;0.80;;;7.20;99.90;;;;;;485257;245;28052;-65
2024/01/02 05:30:24;;;;;;;1.10;1.10;;;7.20;99.90;;;;;;485266;245;28734;-66
2024/01/02 05:32:26;;;;;;;1.53;1.00;;;7.20;99.90;;;;;;485254;245;27896;-66
2024/01/02 05:34:29;;;;;;;1.77;1.20;;;7.20;99.90;;;;;;485226;245;28041;-66
2024/01/02 05:36:28;;;;;;;1.00;0.90;;;7.20;99.90;;;;;;485138;245;27877;-66
2024/01/02 05:38:29;;;;;;;1.17;1.00;;;7.20;99.90;;;;;;485251;245;27536;-66
2024/01/02 05:40:31;;;;;;;1.10;1.00;;;7.20;99.90;;;;;;485242;245;27779;-67
2024/01/02 05:42:32;;;;;;;1.07;1.07;;;7.30;99.90;;;;;;485251;245;27996;-66
2024/01/02 05:44:33;;;;;;;1.10;1.10;;;7.20;99.90;;;;;;485217;245;28406;-65
2024/01/02 05:46:34;;;;;;;1.00;1.00;;;7.30;99.90;;;;;;485253;245;28432;-67
2024/01/02 05:48:36;;;;;;;1.00;1.00;;;7.30;99.90;;;;;;485258;245;28348;-66
2024/01/02 05:50:37;;;;;;;1.33;1.23;;;7.30;99.90;;;;;;485254;245;28091;-67
2024/01/02 05:52:38;;;;;;;0.90;0.90;;;7.30;99.90;;;;;;485243;245;28089;-66
2024/01/02 05:54:40;;;;;;;1.17;1.07;;;7.30;99.90;;;;;;485207;245;28182;-66
2024/01/02 05:56:41;;;;;;;1.27;1.27;;;7.30;99.90;;;;;;485211;245;28849;-66
2024/01/02 05:58:42;;;;;;;1.07;1.07;;;7.30;99.90;;;;;;485258;245;27879;-66
2024/01/02 06:00:43;;;;;;;1.03;1.03;;;7.30;99.90;;;;;;485258;245;28017;-66
2024/01/02 06:02:44;;;;;;;0.80;0.80;;;7.30;99.90;;;;;;485237;245;27966;-66
2024/01/02 06:04:46;;;;;;;1.10;1.00;;;7.30;99.90;;;;;;485189;245;27963;-66
2024/01/02 06:06:47;;;;;;;1.20;1.10;;;7.30;99.90;;;;;;485248;245;27644;-68
2024/01/02 06:08:48;;;;;;;1.67;1.00;;;7.30;99.90;;;;;;485239;245;27764;-65
2024/01/02 06:10:49;;;;;;;1.15;1.10;;;7.30;99.90;;;;;;485225;245;27977;-65
2024/01/02 06:12:51;;;;;;;1.00;1.00;;;7.30;99.90;;;;;;485254;245;27414;-66
2024/01/02 06:14:52;;;;;;;1.53;1.10;;;7.30;99.90;;;;;;485229;245;27894;-65
2024/01/02 06:16:53;;;;;;;1.20;1.10;;;7.30;99.90;;;;;;485244;245;28278;-66
2024/01/02 06:18:54;;;;;;;1.30;1.20;;;7.30;99.90;;;;;;485261;245;28287;-65
2024/01/02 06:20:57;;;;;;;1.00;1.00;;;7.20;99.90;;;;;;485229;245;28641;-66
2024/01/02 06:22:57;;;;;;;1.17;1.10;;;7.20;99.90;;;;;;485146;245;28697;-67
2024/01/02 06:24:58;;;;;;;1.37;1.20;;;7.20;99.90;;;;;;485213;245;28131;-65
2024/01/02 06:26:59;;;;;;;1.10;1.10;;;7.20;99.90;;;;;;485233;245;27842;-67
2024/01/02 06:29:01;;;;;;;1.20;1.10;;;7.20;99.90;;;;;;485250;245;27928;-66
2024/01/02 06:31:05;;;;;;;1.30;1.30;;;7.20;99.90;;;;;;485246;245;27934;-67
2024/01/02 06:33:03;;;;;;;3.20;1.10;;;7.20;99.90;;;;;;485070;245;28014;-68
2024/01/02 06:35:04;;;;;;;1.67;1.20;;;7.20;99.90;;;;;;485194;245;27601;-66
2024/01/02 06:37:06;;;;;;;1.00;1.00;;;7.20;99.90;;;;;;485252;245;27792;-67
2024/01/02 06:39:07;;;;;;;1.17;1.07;;;7.20;99.90;;;;;;485231;245;27876;-66
2024/01/02 06:41:08;;;;;;;0.90;0.90;;;7.20;99.90;;;;;;485243;245;27986;-66
2024/01/02 06:43:09;;;;;;;1.37;0.90;;;7.20;99.90;;;;;;485246;245;27977;-67
2024/01/02 06:45:11;;;;;;;1.00;1.00;;;7.20;99.90;;;;;;485212;245;27960;-66
2024/01/02 06:47:12;;;;;;;1.00;1.00;;;7.10;99.90;;;;;;485225;245;27859;-66
2024/01/02 06:49:13;;;;;;;0.93;0.93;;;7.10;99.90;;;;;;485237;245;27430;-66
2024/01/02 06:51:14;;;;;;;1.40;1.30;;;7.10;99.90;;;;;;485237;245;27743;-66
2024/01/02 06:53:16;;;;;;;1.00;1.00;;;7.10;99.90;;;;;;485243;245;28933;-68
2024/01/02 06:55:17;;;;;;;0.95;0.95;;;7.20;99.90;;;;;;485206;245;28387;-66
2024/01/02 06:57:18;;;;;;;1.23;1.23;;;7.10;99.90;;;;;;485243;245;27873;-66
2024/01/02 06:59:19;;;;;;;0.93;0.93;;;7.10;99.90;;;;;;485257;245;27414;-67
2024/01/02 07:01:21;;;;;;;1.20;1.10;;;7.10;99.90;;;;;;485241;245;27969;-66
2024/01/02 07:03:22;;;;;;;1.00;1.00;;;7.10;99.90;;;;;;485231;245;27974;-66
2024/01/02 07:05:23;;;;;;;1.30;1.20;;;7.10;99.90;;;;;;485156;245;28078;-65
2024/01/02 07:07:24;;;;;;;1.97;1.10;;;7.10;99.90;;;;;;485233;245;27525;-66
2024/01/02 07:09:26;;;;;;;1.27;1.17;;;7.10;99.90;;;;;;485252;245;27529;-67
2024/01/02 07:11:27;;;;;;;1.77;1.20;;;7.10;99.90;;;;;;485241;245;27830;-66
2024/01/02 07:13:28;;;;;;;1.03;1.03;;;7.10;99.90;;;;;;485200;245;27889;-66
2024/01/02 07:15:29;;;;;;;1.30;1.20;;;7.10;99.90;;;;;;485251;245;28121;-65
2024/01/02 07:17:31;;;;;;;1.43;0.90;;;7.10;99.90;;;;;;485246;245;27767;-66
2024/01/02 07:19:32;;;;;;;1.47;1.40;;;7.10;99.90;;;;;;485242;245;27854;-66
2024/01/02 07:21:33;;;;;;;0.90;0.90;;;7.10;99.90;;;;;;485242;245;28028;-66
2024/01/02 07:23:34;;;;;;;1.10;1.10;;;7.10;99.90;;;;;;485217;245;28386;-66
2024/01/02 07:25:36;;;;;;;1.50;1.23;;;7.10;99.90;;;;;;485227;245;29490;-66
2024/01/02 07:27:37;;;;;;;1.30;1.20;;;7.10;99.90;;;;;;485228;245;28410;-66
2024/01/02 07:29:38;;;;;;;1.63;1.30;;;7.10;99.90;;;;;;485229;245;28440;-66
2024/01/02 07:31:39;;;;;;;1.20;1.10;;;7.10;99.90;;;;;;485251;245;28079;-66
2024/01/02 07:33:41;;;;;;;1.63;1.30;;;7.20;99.90;;;;;;485212;245;27528;-66
2024/01/02 07:35:42;;;;;;;1.40;1.30;;;7.20;99.90;;;;;;485238;245;27979;-67
2024/01/02 07:37:43;;;;;;;1.33;1.23;;;7.10;99.90;;;;;;485231;245;27711;-66
2024/01/02 07:39:44;;;;;;;1.20;1.17;;;7.20;99.90;;;;;;485237;245;27993;-67
2024/01/02 07:41:46;;;;;;;1.00;1.00;;;7.10;99.90;;;;;;485221;245;28737;-66
2024/01/02 07:43:47;;;;;;;1.30;1.20;;;7.10;99.90;;;;;;485216;245;27851;-66
2024/01/02 07:45:48;;;;;;;3.03;1.17;;;7.20;99.90;;;;;;485244;245;27730;-67
2024/01/02 07:47:49;;;;;;;1.20;1.10;;;7.20;99.90;;;;;;485239;245;27768;-66
2024/01/02 07:49:51;;;;;;;1.20;1.10;;;7.10;99.90;;;;;;485230;245;27893;-67
2024/01/02 07:51:54;;;;;;;1.40;1.30;;;7.10;99.90;;;;;;485229;245;27771;-65
2024/01/02 07:53:54;;;;;;;2.60;1.20;;;7.10;99.90;;;;;;485144;245;27908;-65
2024/01/02 07:55:55;;;;;;;1.20;1.20;;;7.10;99.90;;;;;;485245;245;27855;-66
2024/01/02 07:57:57;;;;;;;1.30;1.30;;;7.10;99.90;;;;;;485245;245;28013;-67
2024/01/02 07:59:58;;;;;;;1.40;1.30;;;7.10;99.90;;;;;;485178;245;27890;-66
2024/01/02 08:01:59;;;;;;;1.20;1.10;;;7.20;99.90;;;;;;485236;245;27965;-65
2024/01/02 08:04:00;;;;;;;1.10;1.10;;;7.20;99.90;;;;;;485207;245;27745;-66
2024/01/02 08:06:02;;;;;;;1.00;1.00;;;7.20;99.90;;;;;;485198;242;27869;-66
2024/01/02 08:08:03;;;;;;;1.10;1.10;;;7.20;99.90;;;;;;485232;245;28219;-68
2024/01/02 08:10:04;;;;;;;1.53;1.10;;;7.10;99.90;;;;;;485241;245;28351;-66
2024/01/02 08:12:05;;;;;;;1.30;1.20;;;7.20;99.90;;;;;;485216;245;28378;-66
2024/01/02 08:14:06;;;;;;;1.10;1.10;;;7.20;99.90;;;;;;485204;245;28444;-65
2024/01/02 08:16:08;;;;;;;1.17;1.10;;;7.20;99.90;;;;;;485235;242;28420;-66
2024/01/02 08:18:09;;;;;;;1.37;1.27;;;7.20;99.90;;;;;;485236;242;28309;-67
2024/01/02 08:20:10;;;;;;;1.03;1.00;;;7.20;99.90;;;;;;485233;245;27910;-66
2024/01/02 08:22:12;;;;;;;1.83;1.00;;;7.20;99.90;;;;;;485225;245;27720;-66
2024/01/02 08:24:13;;;;;;;1.20;1.10;;;7.20;99.90;;;;;;485159;245;27883;-66
2024/01/02 08:26:14;;;;;;;1.30;1.13;;;7.10;99.90;;;;;;485233;245;28836;-66
2024/01/02 08:28:15;;;;;;;0.90;0.90;;;7.20;99.90;;;;;;485219;245;27760;-67
2024/01/02 08:30:18;;;;;;;1.03;1.03;;;7.10;99.90;;;;;;485237;245;27531;-66
2024/01/02 08:32:18;;;;;;;1.20;1.10;;;7.20;99.90;;;;;;485117;245;27959;-67
2024/01/02 08:34:19;;;;;;;1.57;1.30;;;7.20;99.90;;;;;;485194;245;28436;-67
2024/01/02 08:36:20;;;;;;;1.30;1.20;;;7.20;99.90;;;;;;485227;245;28438;-66
2024/01/02 08:38:21;;;;;;;1.33;1.00;;;7.30;99.90;;;;;;485239;245;28338;-66
2024/01/02 08:40:23;;;;;;;1.37;1.10;;;7.20;99.90;;;;;;485241;245;28449;-66
2024/01/02 08:42:24;;;;;;;1.67;1.17;;;7.20;99.90;;;;;;485235;245;28515;-66
2024/01/02 08:44:25;;;;;;;1.30;1.20;;;7.20;99.90;;;;;;485215;245;27897;-66
2024/01/02 08:46:26;;;;;;;1.00;1.00;;;7.20;99.90;;;;;;485227;245;27790;-66
2024/01/02 08:48:28;;;;;;;2.13;1.60;;;7.20;99.90;;;;;;485217;245;28033;-68
2024/01/02 08:50:29;;;;;;;1.60;1.07;;;7.30;99.90;;;;;;485225;245;27608;-66
2024/01/02 08:52:30;;;;;;;2.20;1.10;;;7.30;99.90;;;;;;485244;245;27888;-66
2024/01/02 08:54:31;;;;;;;1.60;1.23;;;7.30;99.90;;;;;;485195;245;28313;-67
2024/01/02 08:56:33;;;;;;;1.30;1.20;;;7.30;99.90;;;;;;485247;245;27759;-66
2024/01/02 08:58:34;;;;;;;2.03;1.27;;;7.30;99.90;;;;;;485248;245;27760;-66
2024/01/02 09:00:35;;;;;;;2.73;1.30;;;7.30;99.90;;;;;;485221;245;27858;-66
2024/01/02 09:02:36;;;;;;;1.80;1.30;;;7.30;99.90;;;;;;485227;245;27961;-66
2024/01/02 09:04:38;;;;;;;1.62;1.52;;;7.30;99.90;;;;;;485127;245;27887;-67
2024/01/02 09:06:39;;;;;;;1.17;1.07;;;7.30;99.90;;;;;;485211;245;27410;-66
2024/01/02 09:08:40;;;;;;;1.20;1.10;;;7.30;99.90;;;;;;485220;245;28313;-66
2024/01/02 09:10:43;;;;;;;1.20;1.20;;;7.30;99.90;;;;;;485231;245;28411;-68
2024/01/02 09:12:43;;;;;;;1.27;1.03;;;7.30;99.90;;;;;;485123;245;28409;-66
2024/01/02 09:14:44;;;;;;;1.30;1.20;;;7.30;99.90;;;;;;485193;245;28388;-66
2024/01/02 09:16:45;;;;;;;1.50;1.20;;;7.30;99.90;;;;;;485235;245;28807;-66
2024/01/02 09:18:46;;;;;;;2.07;1.97;;;7.40;99.90;;;;;;485225;245;28354;-65
2024/01/02 09:20:48;;;;;;;1.23;1.00;;;7.40;99.90;;;;;;485217;245;27866;-67
2024/01/02 09:22:49;;;;;;;1.50;1.23;;;7.40;99.90;;;;;;485239;245;27513;-66
2024/01/02 09:24:50;;;;;;;1.50;1.27;;;7.40;99.90;;;;;;485191;245;27954;-67
2024/01/02 09:26:52;;;;;;;1.10;1.10;;;7.40;99.90;;;;;;485236;245;27756;-66
2024/01/02 09:28:53;;;;;;;2.27;1.20;;;7.40;99.90;;;;;;485219;245;27634;-66
2024/01/02 09:30:54;;;;;;;1.57;1.47;;;7.40;99.90;;;;;;485227;245;27722;-67
2024/01/02 09:32:55;;;;;;;0.97;0.97;;;7.40;99.90;;;;;;485232;245;27895;-66
2024/01/02 09:34:56;;;;;;;1.00;1.00;;;7.40;99.90;;;;;;485199;245;27709;-66
2024/01/02 09:36:58;;;;;;;1.03;1.03;;;7.40;99.90;;;;;;485229;245;27892;-66
2024/01/02 09:38:59;;;;;;;1.40;1.30;;;7.40;99.90;;;;;;485233;245;27926;-66
2024/01/02 09:41:01;;;;;;;1.33;1.23;;;7.40;99.90;;;;;;485220;245;28825;-67
2024/01/02 09:43:01;;;;;;;2.03;0.93;;;7.40;99.90;;;;;;485206;245;27600;-66
2024/01/02 09:45:03;;;;;;;2.00;1.00;;;7.40;99.90;;;;;;485206;245;27624;-66
2024/01/02 09:47:04;;;;;;;0.90;0.90;;;7.40;99.90;;;;;;485219;245;28353;-67
2024/01/02 09:49:05;;;;;;;1.17;1.07;;;7.40;99.90;;;;;;485200;245;28509;-67
2024/01/02 09:51:06;;;;;;;1.30;1.13;;;7.40;99.90;;;;;;485211;245;28457;-67
2024/01/02 09:53:08;;;;;;;0.80;0.80;;;7.40;99.90;;;;;;485248;245;28248;-66
2024/01/02 09:55:09;;;;;;;1.40;1.20;;;7.40;99.90;;;;;;485212;245;28339;-66
2024/01/02 09:57:10;;;;;;;1.37;1.10;;;7.40;99.90;;;;;;485235;245;28496;-67
2024/01/02 09:59:11;;;;;;;1.07;1.00;;;7.40;99.90;;;;;;485252;245;27933;-66
2024/01/02 10:01:13;;;;;;;1.90;1.80;;;7.50;99.90;;;;;;485256;245;27755;-67
2024/01/02 10:03:14;;;;;;;4.77;4.37;;;7.50;99.90;;;;;;485250;245;27889;-67
2024/01/02 10:05:15;;;;;;;8.40;7.90;;;7.50;99.90;;;;;;485209;245;27861;-67
2024/01/02 10:07:16;;;;;;;2.37;2.27;;;7.50;99.90;;;;;;485233;245;27890;-67
2024/01/02 10:09:18;;;;;;;1.63;1.13;;;7.50;99.90;;;;;;485252;245;27882;-67
2024/01/02 10:11:20;;;;;;;1.60;1.50;;;7.50;99.90;;;;;;485259;245;27525;-67
2024/01/02 10:13:20;;;;;;;1.50;1.40;;;7.60;99.90;;;;;;485194;245;27509;-67
2024/01/02 10:15:21;;;;;;;1.43;0.90;;;7.50;99.90;;;;;;485229;245;27514;-66
2024/01/02 10:17:23;;;;;;;1.77;1.10;;;7.50;99.90;;;;;;485233;245;27533;-67
2024/01/02 10:19:24;;;;;;;1.80;1.30;;;7.50;99.90;;;;;;485244;245;27844;-67
2024/01/02 10:21:25;;;;;;;1.03;1.03;;;7.50;99.90;;;;;;485248;245;27848;-68
2024/01/02 10:23:27;;;;;;;1.10;1.00;;;7.50;99.90;;;;;;485226;245;27847;-67
2024/01/02 10:25:28;;;;;;;1.00;1.00;;;7.60;99.90;;;;;;485222;245;27824;-66
2024/01/02 10:27:29;;;;;;;2.30;1.30;;;7.50;99.90;;;;;;485248;245;27954;-66
2024/01/02 10:29:30;;;;;;;1.30;1.00;;;7.60;99.90;;;;;;485242;245;28299;-65
2024/01/02 10:31:31;;;;;;;0.90;0.90;;;7.60;99.90;;;;;;485238;245;28207;-66
2024/01/02 10:33:33;;;;;;;1.00;1.00;;;7.60;99.90;;;;;;485224;245;27894;-67
2024/01/02 10:35:34;;;;;;;1.90;1.80;;;7.60;99.90;;;;;;485250;245;28321;-66
2024/01/02 10:37:35;;;;;;;1.20;1.10;;;7.60;99.90;;;;;;485246;245;28512;-66
2024/01/02 10:39:37;;;;;;;1.03;1.03;;;7.60;99.90;;;;;;485249;245;28425;-66